Time;durP1;ratioP1;P1;durP2;ratioP2;P2;SDS_P1;SDS_P2;PMS_P1;PMS_P2;Temp;Humidity;BMP_temperature;BMP_pressure;BME280_temperature;BME280_humidity;BME280_pressure;Samples;Min_cycle;Max_cycle;Signal;HPM_P1;HPM_P2
2021/04/21 00:03:56;;;;;;;19.97;14.03;;;;;;;6.39;100.00;98194.36;3771850;78;43763;-27
2021/04/21 00:09:04;;;;;;;21.77;15.07;;;;;;;6.36;100.00;98185.27;3765799;78;44076;-25
2021/04/21 00:14:11;;;;;;;19.87;14.97;;;;;;;6.31;100.00;98180.81;3752459;77;44077;-25
2021/04/21 00:19:19;;;;;;;19.77;14.50;;;;;;;6.26;100.00;98175.05;3742800;78;43569;-25
2021/04/21 00:24:27;;;;;;;21.47;14.30;;;;;;;6.22;100.00;98174.49;3755982;78;43482;-25
2021/04/21 00:29:34;;;;;;;19.47;14.67;;;;;;;6.16;100.00;98166.53;3759101;78;43738;-25
2021/04/21 00:34:43;;;;;;;18.63;13.67;;;;;;;6.12;100.00;98161.09;3761986;78;43699;-25
2021/04/21 00:39:48;;;;;;;21.80;14.23;;;;;;;6.11;100.00;98160.75;3761959;77;44227;-25
2021/04/21 00:45:01;;;;;;;22.07;14.73;;;;;;;6.08;100.00;98159.67;3751961;78;44732;-26
2021/04/21 00:50:12;;;;;;;20.87;14.23;;;;;;;6.06;100.00;98160.30;3754313;78;43714;-25
2021/04/21 00:55:25;;;;;;;22.30;15.30;;;;;;;6.05;100.00;98151.95;3753457;78;44032;-25
2021/04/21 01:00:34;;;;;;;18.53;12.70;;;;;;;6.00;100.00;98150.17;3754574;78;43681;-25
2021/04/21 01:05:45;;;;;;;19.70;14.07;;;;;;;5.95;100.00;98150.56;3756264;77;26326;-26
2021/04/21 01:10:54;;;;;;;19.20;14.27;;;;;;;5.91;100.00;98141.12;3749413;78;44613;-26
2021/04/21 01:16:01;;;;;;;24.20;14.57;;;;;;;5.88;100.00;98143.23;3730042;78;43372;-24
2021/04/21 01:21:10;;;;;;;19.60;14.77;;;;;;;5.81;100.00;98157.16;3731387;78;43326;-24
2021/04/21 01:26:29;;;;;;;21.90;15.50;;;;;;;5.67;100.00;98144.18;3723494;79;44070;-24
2021/04/21 01:31:38;;;;;;;23.13;15.73;;;;;;;5.65;100.00;98150.98;3721718;79;43373;-24
2021/04/21 01:36:46;;;;;;;23.93;17.00;;;;;;;5.68;100.00;98152.55;3721631;78;43321;-25
2021/04/21 01:41:56;;;;;;;20.63;14.43;;;;;;;5.67;100.00;98154.88;3718425;79;44219;-25
2021/04/21 01:47:06;;;;;;;23.20;15.53;;;;;;;5.63;100.00;98148.96;3729355;79;43965;-24
2021/04/21 01:52:17;;;;;;;27.10;18.33;;;;;;;5.59;100.00;98146.67;3723873;78;43677;-25
2021/04/21 01:57:27;;;;;;;22.27;14.97;;;;;;;5.50;100.00;98142.51;3720502;79;44030;-24
2021/04/21 02:02:36;;;;;;;23.87;16.77;;;;;;;5.40;100.00;98142.97;3712171;79;44100;-24
2021/04/21 02:07:57;;;;;;;19.50;14.13;;;;;;;5.34;100.00;98144.36;3720121;77;44045;-24
2021/04/21 02:13:15;;;;;;;21.23;15.83;;;;;;;5.28;100.00;98142.23;3746908;78;43446;-25
2021/04/21 02:18:24;;;;;;;21.33;14.23;;;;;;;5.20;100.00;98141.56;3756995;77;43435;-25
2021/04/21 02:23:35;;;;;;;21.03;14.80;;;;;;;5.17;100.00;98145.00;3762416;78;43128;-25
2021/04/21 02:28:49;;;;;;;25.40;16.60;;;;;;;5.09;100.00;98148.34;3676849;79;43762;-26
2021/04/21 02:33:59;;;;;;;24.33;16.27;;;;;;;5.07;100.00;98146.28;3690302;79;43181;-25
2021/04/21 02:39:09;;;;;;;23.53;16.43;;;;;;;5.07;100.00;98149.78;3690134;80;43423;-25
2021/04/21 02:44:19;;;;;;;21.30;15.40;;;;;;;5.09;100.00;98149.16;3676312;79;44264;-26
2021/04/21 02:49:38;;;;;;;18.97;14.67;;;;;;;5.11;100.00;98149.05;3614590;81;44062;-25
2021/04/21 02:54:55;;;;;;;20.07;14.40;;;;;;;5.12;100.00;98150.72;3617899;81;43978;-25
2021/04/21 03:00:06;;;;;;;22.47;15.20;;;;;;;5.13;100.00;98146.23;3674693;80;43990;-25
2021/04/21 03:05:16;;;;;;;22.50;15.97;;;;;;;5.13;100.00;98152.41;3760512;77;43471;-25
2021/04/21 03:10:24;;;;;;;21.57;15.33;;;;;;;5.11;100.00;98145.05;3761451;77;44034;-25
2021/04/21 03:15:32;;;;;;;23.87;16.23;;;;;;;5.09;100.00;98146.50;3736325;78;42949;-25
2021/04/21 03:20:42;;;;;;;19.67;14.20;;;;;;;5.11;100.00;98148.19;3734117;78;43980;-21
2021/04/21 03:25:49;;;;;;;21.77;15.60;;;;;;;5.08;100.00;98146.64;3737645;78;43462;-21
2021/04/21 03:30:59;;;;;;;21.07;14.43;;;;;;;5.05;100.00;98138.89;3736524;79;45217;-24
2021/04/21 03:36:07;;;;;;;22.83;15.87;;;;;;;4.98;100.00;98143.08;3745390;79;43194;-21
2021/04/21 03:41:13;;;;;;;22.87;15.80;;;;;;;4.92;100.00;98141.28;3727884;78;44053;-21
2021/04/21 03:46:21;;;;;;;22.20;15.13;;;;;;;4.89;100.00;98141.54;3716827;79;44113;-20
2021/04/21 03:51:28;;;;;;;21.73;15.23;;;;;;;4.83;100.00;98140.75;3719666;79;43729;-20
2021/04/21 03:56:36;;;;;;;23.67;14.97;;;;;;;4.77;100.00;98136.78;3714029;78;44031;-21
2021/04/21 04:01:45;;;;;;;22.77;16.17;;;;;;;4.73;100.00;98139.84;3706436;78;43396;-20
2021/04/21 04:06:54;;;;;;;22.00;15.40;;;;;;;4.69;100.00;98137.94;3715437;79;44023;-20
2021/04/21 04:12:04;;;;;;;21.73;15.47;;;;;;;4.65;100.00;98134.30;3717157;78;44031;-20
2021/04/21 04:17:15;;;;;;;21.33;15.20;;;;;;;4.59;100.00;98133.00;3720275;77;43674;-21
2021/04/21 04:22:23;;;;;;;21.00;15.27;;;;;;;4.54;100.00;98137.39;3719448;79;44018;-21
2021/04/21 04:27:31;;;;;;;22.37;16.10;;;;;;;4.48;100.00;98144.09;3716614;78;43356;-21
2021/04/21 04:32:41;;;;;;;24.90;16.27;;;;;;;4.49;100.00;98142.30;3711493;78;43583;-21
2021/04/21 04:37:50;;;;;;;20.93;15.17;;;;;;;4.48;100.00;98143.27;3727215;79;42903;-20
2021/04/21 04:42:56;;;;;;;20.33;15.07;;;;;;;4.44;100.00;98146.69;3724952;79;44061;-21
2021/04/21 04:48:04;;;;;;;20.07;15.10;;;;;;;4.44;100.00;98155.16;3728899;79;44084;-20
2021/04/21 04:53:12;;;;;;;23.83;16.23;;;;;;;4.45;100.00;98154.19;3732034;79;43401;-21
2021/04/21 04:58:21;;;;;;;22.60;15.87;;;;;;;4.45;100.00;98154.19;3729534;79;44019;-21
2021/04/21 05:03:30;;;;;;;23.83;16.10;;;;;;;4.46;100.00;98166.55;3727116;79;44000;-20
2021/04/21 05:08:39;;;;;;;21.80;15.43;;;;;;;4.47;100.00;98162.91;3727172;79;44070;-20
2021/04/21 05:13:48;;;;;;;23.00;16.00;;;;;;;4.50;100.00;98168.00;3738943;78;43643;-21
2021/04/21 05:19:33;;;;;;;22.30;15.07;;;;;;;4.51;100.00;98176.36;3748784;78;43911;-21
2021/04/21 05:25:35;;;;;;;23.77;15.63;;;;;;;4.51;100.00;98189.70;3743611;78;43648;-21
2021/04/21 05:31:14;;;;;;;22.10;14.53;;;;;;;4.50;100.00;98189.34;3735113;78;45210;-20
2021/04/21 05:36:55;;;;;;;24.10;15.77;;;;;;;4.42;100.00;98185.11;3736652;78;43273;-21
2021/04/21 05:42:40;;;;;;;24.10;16.13;;;;;;;4.37;100.00;98186.83;3646679;80;44111;-20
2021/04/21 05:48:18;;;;;;;23.80;16.63;;;;;;;4.43;100.00;98194.81;3583053;82;43996;-21
2021/04/21 05:53:59;;;;;;;23.40;16.47;;;;;;;4.44;100.00;98196.03;3743587;78;44667;-20
2021/04/21 05:59:33;;;;;;;22.77;15.87;;;;;;;4.48;100.00;98200.12;3743308;78;44057;-20
2021/04/21 06:04:39;;;;;;;28.53;16.50;;;;;;;4.56;100.00;98191.98;3751485;78;44076;-21
2021/04/21 06:09:44;;;;;;;25.27;17.67;;;;;;;4.71;100.00;98196.50;3755786;78;44069;-21
2021/04/21 06:14:52;;;;;;;28.10;19.10;;;;;;;4.82;100.00;98192.44;3742994;78;44078;-20
2021/04/21 06:19:58;;;;;;;27.37;18.47;;;;;;;4.97;100.00;98196.12;3597080;81;43470;-21
2021/04/21 06:25:11;;;;;;;28.83;19.37;;;;;;;5.07;100.00;98197.02;3753978;78;43656;-20
2021/04/21 06:30:21;;;;;;;25.53;18.07;;;;;;;5.21;100.00;98195.81;3752040;78;43992;-21
2021/04/21 06:35:30;;;;;;;24.37;17.73;;;;;;;5.39;100.00;98199.58;3749771;78;43349;-21
2021/04/21 06:40:37;;;;;;;26.00;17.83;;;;;;;5.54;100.00;98196.52;3753978;78;43333;-21
2021/04/21 06:45:45;;;;;;;25.20;18.70;;;;;;;5.72;100.00;98194.05;3754927;78;43722;-21
2021/04/21 06:50:51;;;;;;;23.93;18.83;;;;;;;5.85;100.00;98195.98;3738711;78;44087;-21
2021/04/21 06:55:58;;;;;;;23.63;17.93;;;;;;;6.08;100.00;98201.13;3665720;80;43688;-21
2021/04/21 07:01:10;;;;;;;24.73;16.87;;;;;;;6.35;100.00;98202.80;3745823;78;43530;-20
2021/04/21 07:06:16;;;;;;;24.53;17.77;;;;;;;6.58;100.00;98207.38;3746277;78;43636;-21
2021/04/21 07:11:24;;;;;;;27.00;16.97;;;;;;;6.90;100.00;98200.38;3651013;80;44179;-21
2021/04/21 07:16:31;;;;;;;22.87;15.83;;;;;;;7.23;100.00;98201.38;3700853;79;44154;-21
2021/04/21 07:21:40;;;;;;;26.40;17.13;;;;;;;7.59;100.00;98205.52;3724957;78;44628;-21
2021/04/21 07:26:48;;;;;;;24.80;16.37;;;;;;;7.99;100.00;98204.34;3724360;79;44051;-20
2021/04/21 07:31:55;;;;;;;22.93;16.43;;;;;;;8.26;100.00;98201.77;3724772;79;43809;-21
2021/04/21 07:37:03;;;;;;;23.37;16.13;;;;;;;8.40;100.00;98199.07;3722409;79;43322;-22
2021/04/21 07:42:17;;;;;;;21.00;15.08;;;;;;;8.60;100.00;98201.11;3721364;79;73234;-21
2021/04/21 07:47:27;;;;;;;22.80;16.43;;;;;;;8.92;100.00;98205.09;3702535;78;43714;-22
2021/04/21 07:52:35;;;;;;;19.53;14.97;;;;;;;9.19;100.00;98208.14;3651926;80;44065;-22
2021/04/21 07:57:44;;;;;;;21.67;15.67;;;;;;;9.28;100.00;98207.70;3651537;81;43536;-22
2021/04/21 08:02:50;;;;;;;21.87;15.03;;;;;;;9.44;100.00;98198.88;3651413;81;73177;-22
2021/04/21 08:07:58;;;;;;;22.85;15.32;;;;;;;9.67;100.00;98204.53;3650401;81;43689;-21
2021/04/21 08:13:07;;;;;;;24.13;15.30;;;;;;;9.82;100.00;98201.23;3649517;81;44290;-21
2021/04/21 08:18:14;;;;;;;20.40;14.40;;;;;;;10.14;100.00;98205.90;3627839;79;43369;-22
2021/04/21 08:23:22;;;;;;;20.37;13.90;;;;;;;10.24;100.00;98206.25;3639099;81;43811;-22
2021/04/21 08:28:27;;;;;;;19.33;13.37;;;;;;;10.44;100.00;98195.55;3733648;78;43384;-22
2021/04/21 08:33:33;;;;;;;18.85;13.68;;;;;;;10.58;100.00;98202.64;3633650;81;43378;-22
2021/04/21 08:38:39;;;;;;;23.18;14.75;;;;;;;10.71;100.00;98198.95;3741111;79;44103;-21
2021/04/21 08:43:48;;;;;;;20.55;13.65;;;;;;;10.82;100.00;98207.19;3738234;79;44142;-21
2021/04/21 08:48:54;;;;;;;19.45;13.68;;;;;;;10.74;100.00;98204.50;3739086;78;44011;-22
2021/04/21 08:54:04;;;;;;;19.45;13.48;;;;;;;10.98;100.00;98211.76;3740359;78;43463;-22
2021/04/21 08:59:12;;;;;;;15.85;12.33;;;;;;;11.10;100.00;98217.14;3739741;79;43289;-22
2021/04/21 09:04:18;;;;;;;19.00;12.68;;;;;;;11.23;100.00;98219.83;3740916;79;43708;-21
2021/04/21 09:09:26;;;;;;;15.55;11.57;;;;;;;11.32;100.00;98224.19;3738210;79;44005;-21
2021/04/21 09:14:33;;;;;;;17.17;12.23;;;;;;;11.50;100.00;98223.99;3741316;78;43898;-21
2021/04/21 09:19:39;;;;;;;16.42;12.13;;;;;;;11.66;100.00;98225.80;3752857;79;44062;-21
2021/04/21 09:24:44;;;;;;;15.10;10.35;;;;;;;11.77;100.00;98225.92;3752310;78;44017;-22
2021/04/21 09:29:50;;;;;;;15.43;9.85;;;;;;;11.86;100.00;98228.95;3747065;78;43748;-22
2021/04/21 09:34:57;;;;;;;16.02;11.28;;;;;;;12.08;100.00;98229.22;3753397;79;44133;-22
2021/04/21 09:40:03;;;;;;;16.40;10.35;;;;;;;11.99;99.34;98226.23;3752257;78;43988;-20
2021/04/21 09:45:12;;;;;;;14.23;9.88;;;;;;;12.08;94.69;98222.97;3750133;78;43345;-22
2021/04/21 09:50:22;;;;;;;13.78;9.70;;;;;;;12.33;90.74;98217.77;3753484;79;43785;-23
2021/04/21 09:55:32;;;;;;;13.08;9.60;;;;;;;12.36;86.83;98214.39;3752277;78;44050;-23
2021/04/21 10:00:41;;;;;;;12.35;9.03;;;;;;;12.56;82.33;98219.66;3748510;79;44179;-22
2021/04/21 10:05:46;;;;;;;13.00;8.68;;;;;;;12.74;82.95;98209.91;3752684;79;43488;-22
2021/04/21 10:11:02;;;;;;;11.53;7.12;;;;;;;12.90;76.61;98211.63;3750677;78;44025;-23
2021/04/21 10:16:09;;;;;;;9.48;6.65;;;;;;;13.09;71.90;98213.52;3749733;78;43714;-23
2021/04/21 10:21:17;;;;;;;9.20;6.75;;;;;;;13.19;70.58;98204.64;3753563;79;43416;-22
2021/04/21 10:26:23;;;;;;;9.83;6.17;;;;;;;13.46;69.39;98203.73;3751212;78;43728;-22
2021/04/21 10:31:30;;;;;;;7.75;5.72;;;;;;;13.55;64.34;98194.50;3753788;78;44033;-23
2021/04/21 10:36:36;;;;;;;9.38;6.35;;;;;;;13.64;66.14;98195.75;3751580;79;44070;-22
2021/04/21 10:41:44;;;;;;;8.15;6.12;;;;;;;13.77;59.01;98199.14;3752644;79;43463;-21
2021/04/21 10:47:09;;;;;;;11.50;6.50;;;;;;;13.73;63.13;98192.44;3753629;79;44049;-22
2021/04/21 10:52:18;;;;;;;10.25;6.83;;;;;;;13.72;58.03;98191.59;3753267;79;43333;-22
2021/04/21 10:57:32;;;;;;;9.03;6.45;;;;;;;13.79;59.08;98196.59;3749662;79;43397;-22
2021/04/21 11:02:48;;;;;;;9.08;5.97;;;;;;;14.07;62.29;98189.12;3753973;78;43446;-22
2021/04/21 11:08:02;;;;;;;10.40;5.90;;;;;;;14.13;53.55;98182.09;3753683;79;43668;-22
2021/04/21 11:13:08;;;;;;;8.75;5.40;;;;;;;14.12;53.58;98184.48;3749691;79;43970;-23
2021/04/21 11:18:39;;;;;;;8.48;4.90;;;;;;;14.08;53.34;98184.03;3749723;78;43742;-23
2021/04/21 11:24:15;;;;;;;7.62;5.80;;;;;;;14.39;49.86;98180.23;3747819;78;43616;-21
2021/04/21 11:29:32;;;;;;;7.20;5.72;;;;;;;14.25;50.78;98175.69;3747461;78;42987;-23
2021/04/21 11:34:40;;;;;;;7.45;5.92;;;;;;;14.41;51.74;98170.02;3746772;78;43666;-22
2021/04/21 11:45:31;;;;;;;10.20;5.10;;;;;;;14.47;49.20;98167.91;3745027;78;44204;-22
2021/04/21 11:50:38;;;;;;;8.40;4.70;;;;;;;14.46;51.33;98159.45;3747978;78;43242;-24
2021/04/21 11:55:54;;;;;;;5.42;4.22;;;;;;;14.67;41.75;98156.44;3747778;79;43399;-22
2021/04/21 12:01:02;;;;;;;8.30;5.22;;;;;;;14.72;42.69;98163.98;3744924;79;43524;-23
2021/04/21 12:06:09;;;;;;;7.60;5.37;;;;;;;14.91;47.18;98155.71;3747090;78;44000;-23
2021/04/21 12:11:17;;;;;;;7.22;5.60;;;;;;;14.97;44.62;98150.88;3746664;78;43404;-22
2021/04/21 12:16:26;;;;;;;9.80;6.28;;;;;;;15.01;43.32;98146.71;3745148;78;43525;-22
2021/04/21 12:21:36;;;;;;;6.97;5.17;;;;;;;15.09;47.49;98142.52;3753528;79;43417;-24
2021/04/21 12:26:45;;;;;;;10.30;6.72;;;;;;;15.06;43.40;98133.91;3752427;78;43706;-22
2021/04/21 12:31:55;;;;;;;10.08;6.28;;;;;;;15.17;45.14;98140.68;3748669;78;44072;-24
2021/04/21 12:37:02;;;;;;;8.35;6.28;;;;;;;15.23;44.45;98126.30;3753819;78;43115;-23
2021/04/21 12:42:10;;;;;;;7.92;6.60;;;;;;;15.41;45.31;98121.72;3754297;79;44161;-23
2021/04/21 12:47:17;;;;;;;8.85;6.53;;;;;;;15.26;45.69;98119.13;3753245;78;42848;-23
2021/04/21 12:52:30;;;;;;;9.03;6.37;;;;;;;15.48;44.32;98121.75;3753656;79;43385;-23
2021/04/21 12:57:50;;;;;;;9.93;6.97;;;;;;;15.27;42.47;98115.91;3750018;79;44023;-23
2021/04/21 13:02:56;;;;;;;9.28;7.28;;;;;;;15.56;46.73;98101.25;3718813;79;44554;-23
2021/04/21 13:08:20;;;;;;;11.28;7.40;;;;;;;15.86;45.69;98095.04;3753151;78;43342;-24
2021/04/21 13:13:28;;;;;;;9.35;7.60;;;;;;;15.88;44.79;98094.83;3750670;78;44001;-23
2021/04/21 13:18:37;;;;;;;9.13;6.47;;;;;;;16.10;45.42;98087.88;3747683;78;43358;-23
2021/04/21 13:23:52;;;;;;;9.85;7.00;;;;;;;15.87;43.38;98095.86;3744001;78;44136;-23
2021/04/21 13:29:01;;;;;;;9.28;6.25;;;;;;;16.51;47.67;98085.56;3739561;79;43313;-24
2021/04/21 13:34:08;;;;;;;9.15;6.45;;;;;;;16.65;44.16;98082.31;3747421;79;43735;-22
2021/04/21 13:39:14;;;;;;;9.75;6.87;;;;;;;16.57;43.22;98079.28;3747279;79;43746;-23
2021/04/21 13:44:22;;;;;;;6.30;5.62;;;;;;;16.90;44.77;98078.42;3748029;78;43439;-24
2021/04/21 13:49:28;;;;;;;6.28;4.40;;;;;;;16.69;40.87;98072.70;3747332;79;43368;-22
2021/04/21 13:54:34;;;;;;;6.95;4.67;;;;;;;16.66;41.22;98071.75;3747482;78;43243;-23
2021/04/21 13:59:42;;;;;;;5.30;4.12;;;;;;;16.86;37.79;98074.47;3747016;79;43718;-23
2021/04/21 14:04:48;;;;;;;6.72;4.70;;;;;;;16.94;38.57;98063.90;3747153;77;43791;-23
2021/04/21 14:09:54;;;;;;;6.72;4.80;;;;;;;17.02;37.34;98058.77;3747654;79;43748;-22
2021/04/21 14:15:00;;;;;;;6.85;4.60;;;;;;;16.99;39.07;98059.21;3746295;78;43278;-24
2021/04/21 14:20:11;;;;;;;8.05;4.90;;;;;;;17.37;39.59;98057.96;3750615;78;43464;-23
2021/04/21 14:25:20;;;;;;;6.37;4.53;;;;;;;17.44;39.31;98055.22;3753094;79;43940;-22
2021/04/21 14:30:28;;;;;;;7.58;4.67;;;;;;;17.43;37.38;98052.19;3749965;78;44031;-23
2021/04/21 14:35:34;;;;;;;5.70;4.50;;;;;;;17.01;37.71;98050.28;3754008;78;42963;-23
2021/04/21 14:40:40;;;;;;;5.90;4.55;;;;;;;17.35;39.19;98045.08;3755850;78;42794;-22
2021/04/21 14:45:46;;;;;;;6.15;4.35;;;;;;;17.50;38.91;98048.08;3752137;78;44066;-22
2021/04/21 14:50:52;;;;;;;5.50;4.80;;;;;;;17.81;39.90;98051.41;3751115;78;44618;-23
2021/04/21 14:55:58;;;;;;;6.75;4.70;;;;;;;17.55;36.13;98070.89;3751851;78;44491;-23
2021/04/21 15:01:05;;;;;;;7.37;5.05;;;;;;;17.65;39.90;98047.80;3745730;78;43090;-23
2021/04/21 15:06:12;;;;;;;8.18;4.70;;;;;;;17.50;39.05;98042.63;3751078;79;44079;-22
2021/04/21 15:11:21;;;;;;;6.47;4.60;;;;;;;18.16;39.52;98036.03;3747776;78;44148;-22
2021/04/21 15:16:28;;;;;;;7.78;5.15;;;;;;;17.60;39.43;98038.06;3749500;79;43689;-23
2021/04/21 15:21:34;;;;;;;7.65;4.70;;;;;;;17.62;40.79;98043.63;3746843;78;44018;-23
2021/04/21 15:26:40;;;;;;;5.83;4.40;;;;;;;18.14;38.06;98039.50;3746712;79;43710;-22
2021/04/21 15:31:47;;;;;;;5.70;4.75;;;;;;;18.21;39.20;98041.33;3743226;78;43158;-24
2021/04/21 15:36:54;;;;;;;8.00;4.70;;;;;;;17.75;35.61;98045.44;3746624;79;43193;-23
2021/04/21 15:42:01;;;;;;;8.45;5.10;;;;;;;18.13;38.00;98040.55;3746965;79;43690;-24
2021/04/21 15:47:07;;;;;;;6.72;4.50;;;;;;;17.79;37.24;98052.65;3742451;79;43955;-22
2021/04/21 15:52:18;;;;;;;7.05;4.47;;;;;;;18.03;36.72;98036.11;3743835;78;44062;-22
2021/04/21 15:57:28;;;;;;;7.35;4.80;;;;;;;17.87;38.30;98027.35;3745333;79;44536;-22
2021/04/21 16:02:38;;;;;;;5.05;4.55;;;;;;;17.65;39.30;98030.09;3743841;78;43270;-23
2021/04/21 16:07:45;;;;;;;7.10;3.90;;;;;;;17.74;39.29;98031.51;3746313;79;44462;-23
2021/04/21 16:12:53;;;;;;;4.03;3.62;;;;;;;16.94;37.74;98029.38;3746093;79;44194;-23
2021/04/21 16:17:59;;;;;;;8.05;4.30;;;;;;;17.13;39.00;98020.55;3745279;78;43709;-23
2021/04/21 16:23:06;;;;;;;5.35;3.62;;;;;;;16.91;39.18;98029.77;3745631;78;43322;-22
2021/04/21 16:28:13;;;;;;;6.90;4.12;;;;;;;17.21;37.41;98023.88;3745999;79;44010;-24
2021/04/21 16:33:20;;;;;;;7.83;3.60;;;;;;;17.31;38.67;98026.67;3746118;79;43993;-23
2021/04/21 16:38:26;;;;;;;4.87;3.75;;;;;;;17.60;39.93;98023.08;3745092;79;43717;-23
2021/04/21 16:43:32;;;;;;;4.75;3.80;;;;;;;17.54;39.64;98025.64;3744346;78;44027;-24
2021/04/21 16:48:41;;;;;;;6.60;3.42;;;;;;;17.08;36.11;98021.19;3746913;79;43111;-22
2021/04/21 16:53:49;;;;;;;4.83;3.80;;;;;;;17.01;38.77;98023.92;3745449;78;43369;-23
2021/04/21 16:58:55;;;;;;;5.33;3.65;;;;;;;16.71;38.81;98022.98;3744870;79;44031;-23
2021/04/21 17:04:03;;;;;;;5.72;3.75;;;;;;;16.54;38.37;98019.86;3745602;79;43678;-22
2021/04/21 17:09:13;;;;;;;5.37;3.95;;;;;;;16.78;38.64;98024.34;3742723;78;44035;-22
2021/04/21 17:14:21;;;;;;;6.70;4.25;;;;;;;16.52;39.46;98026.05;3745191;78;44028;-23
2021/04/21 17:19:27;;;;;;;4.87;4.30;;;;;;;16.35;41.30;98024.78;3750096;78;43725;-22
2021/04/21 17:24:33;;;;;;;6.40;4.15;;;;;;;16.36;40.04;98027.81;3751447;79;44041;-22
2021/04/21 17:29:38;;;;;;;6.10;4.17;;;;;;;16.35;41.10;98022.89;3750288;78;44086;-22
2021/04/21 17:34:45;;;;;;;7.83;4.58;;;;;;;16.07;41.57;98029.36;3748659;79;43086;-22
2021/04/21 17:39:53;;;;;;;7.45;4.67;;;;;;;15.94;41.76;98022.53;3751157;78;43697;-22
2021/04/21 17:44:59;;;;;;;6.45;4.50;;;;;;;15.42;40.64;98032.46;3656247;80;43682;-21
2021/04/21 17:50:06;;;;;;;8.20;6.08;;;;;;;15.45;42.13;98051.06;3751671;79;44050;-22
2021/04/21 17:55:15;;;;;;;8.85;6.72;;;;;;;15.08;44.43;98053.16;3751932;79;43236;-23
2021/04/21 18:00:23;;;;;;;7.30;6.42;;;;;;;14.86;44.20;98056.48;3751118;78;44488;-22
2021/04/21 18:05:30;;;;;;;11.28;7.20;;;;;;;14.37;46.14;98069.83;3657295;79;43423;-22
2021/04/21 18:10:39;;;;;;;13.25;9.38;;;;;;;14.18;47.37;98064.53;3753772;78;44733;-22
2021/04/21 18:15:45;;;;;;;13.90;7.28;;;;;;;13.86;47.30;98066.18;3659772;80;44015;-22
2021/04/21 18:20:52;;;;;;;9.93;7.58;;;;;;;13.44;49.09;98069.12;3751832;78;42644;-22
2021/04/21 18:25:58;;;;;;;9.73;7.55;;;;;;;13.12;49.89;98081.96;3756518;79;44014;-22
2021/04/21 18:31:05;;;;;;;8.18;7.28;;;;;;;12.98;51.00;98088.22;3751549;77;43117;-22
2021/04/21 18:36:13;;;;;;;10.65;7.72;;;;;;;12.78;51.41;98100.91;3757249;79;44110;-22
2021/04/21 18:41:21;;;;;;;12.43;6.83;;;;;;;12.69;51.01;98109.62;3758730;77;43464;-22
2021/04/21 18:46:31;;;;;;;12.43;7.07;;;;;;;12.55;50.04;98116.64;3757952;77;43361;-22
2021/04/21 18:51:38;;;;;;;11.33;6.97;;;;;;;12.56;50.69;98123.73;3754441;78;43440;-24
2021/04/21 18:56:44;;;;;;;8.75;6.83;;;;;;;12.47;49.62;98135.63;3757972;77;43278;-21
2021/04/21 19:01:51;;;;;;;9.80;7.25;;;;;;;12.43;50.89;98142.41;3760213;77;44384;-21
2021/04/21 19:06:57;;;;;;;8.85;6.90;;;;;;;12.35;51.20;98146.52;3727869;77;42730;-21
2021/04/21 19:12:03;;;;;;;9.03;6.92;;;;;;;12.32;51.09;98154.48;3745431;77;44619;-22
2021/04/21 19:17:09;;;;;;;13.18;7.35;;;;;;;12.26;49.25;98163.28;3756023;79;43291;-22
2021/04/21 19:22:15;;;;;;;11.88;8.75;;;;;;;12.01;52.11;98175.58;3769416;78;44091;-22
2021/04/21 19:27:23;;;;;;;13.05;9.68;;;;;;;11.72;56.54;98187.31;3769913;78;44191;-22
2021/04/21 19:32:30;;;;;;;14.53;10.00;;;;;;;11.41;61.55;98189.94;3770443;78;44014;-27
2021/04/21 19:37:38;;;;;;;13.08;9.75;;;;;;;11.26;65.70;98197.89;3760415;78;44066;-27
2021/04/21 19:42:45;;;;;;;12.82;9.68;;;;;;;11.06;68.57;98200.97;3771164;78;42911;-27
2021/04/21 19:47:51;;;;;;;14.55;10.60;;;;;;;10.92;70.81;98207.03;3770188;78;44002;-27
2021/04/21 19:53:06;;;;;;;14.33;10.28;;;;;;;10.74;73.32;98225.56;3768937;78;43138;-27
2021/04/21 19:58:13;;;;;;;17.87;11.97;;;;;;;10.64;75.76;98224.89;3770552;78;43324;-27
2021/04/21 20:03:21;;;;;;;14.75;11.60;;;;;;;10.43;81.08;98242.34;3643343;80;43710;-27
2021/04/21 20:08:27;;;;;;;14.87;10.63;;;;;;;10.42;82.50;98240.65;3702691;79;43016;-26
2021/04/21 20:13:33;;;;;;;14.58;9.80;;;;;;;10.38;82.65;98240.66;3704537;80;43661;-26
2021/04/21 20:18:41;;;;;;;13.08;9.65;;;;;;;10.27;83.94;98246.31;3707376;80;44453;-26
2021/04/21 20:23:48;;;;;;;12.37;8.78;;;;;;;10.20;84.32;98254.20;3680456;79;44352;-26
2021/04/21 20:28:54;;;;;;;11.20;7.65;;;;;;;10.14;85.02;98268.30;3745053;78;43409;-26
2021/04/21 20:34:02;;;;;;;11.63;7.58;;;;;;;10.05;86.26;98278.21;3734831;78;44067;-27
2021/04/21 20:39:10;;;;;;;11.60;6.97;;;;;;;9.95;85.37;98290.44;3738003;78;44090;-26
2021/04/21 20:44:16;;;;;;;11.95;7.45;;;;;;;9.85;85.63;98297.27;3739041;78;44481;-27
2021/04/21 20:49:22;;;;;;;13.93;7.30;;;;;;;9.81;86.41;98299.09;3744055;79;75205;-27
2021/04/21 20:54:28;;;;;;;11.53;7.33;;;;;;;9.78;85.62;98311.52;3743909;78;44807;-27
2021/04/21 20:59:35;;;;;;;10.93;6.75;;;;;;;9.65;84.61;98316.81;3743909;78;44075;-27
2021/04/21 21:04:42;;;;;;;10.68;6.80;;;;;;;9.55;82.88;98318.28;3703459;79;44530;-27
2021/04/21 21:09:49;;;;;;;12.47;6.28;;;;;;;9.43;82.12;98338.36;3745155;79;43673;-27
2021/04/21 21:14:55;;;;;;;9.18;5.80;;;;;;;9.30;82.82;98346.81;3739047;78;44456;-27
2021/04/21 21:20:02;;;;;;;9.87;5.60;;;;;;;9.16;82.02;98345.52;3745745;78;44065;-26
2021/04/21 21:25:11;;;;;;;11.55;5.47;;;;;;;9.02;81.03;98363.52;3742767;78;43530;-26
2021/04/21 21:30:22;;;;;;;9.30;4.83;;;;;;;8.83;78.75;98369.87;3743638;78;44471;-27
2021/04/21 21:35:29;;;;;;;7.40;4.60;;;;;;;8.82;77.72;98375.75;3746018;79;69087;-27
2021/04/21 21:40:37;;;;;;;8.10;4.03;;;;;;;8.66;73.66;98392.53;3743125;79;43163;-27
2021/04/21 21:45:45;;;;;;;6.72;3.80;;;;;;;8.69;73.17;98380.64;3743117;78;44006;-31
2021/04/21 21:50:51;;;;;;;9.03;3.73;;;;;;;8.64;74.31;98390.48;3745122;79;44786;-27
2021/04/21 21:55:56;;;;;;;10.85;3.77;;;;;;;8.67;73.87;98395.56;3747857;79;44026;-34
2021/04/21 22:01:02;;;;;;;8.43;3.30;;;;;;;8.60;72.77;98400.69;3744609;78;43455;-27
2021/04/21 22:06:09;;;;;;;9.78;3.45;;;;;;;8.49;73.74;98412.97;3745787;79;44040;-27
2021/04/21 22:11:16;;;;;;;6.87;3.02;;;;;;;8.38;73.18;98420.67;3739622;79;44479;-27
2021/04/21 22:16:22;;;;;;;9.07;2.87;;;;;;;8.27;71.83;98419.52;3747916;78;43674;-27
2021/04/21 22:21:28;;;;;;;9.00;2.60;;;;;;;8.24;73.17;98422.00;3741216;78;69065;-27
2021/04/21 22:26:36;;;;;;;5.90;2.53;;;;;;;7.98;70.29;98432.02;3742662;78;44051;-27
2021/04/21 22:31:42;;;;;;;6.28;2.47;;;;;;;7.70;68.25;98437.28;3745849;78;43320;-27
2021/04/21 22:36:49;;;;;;;4.97;2.20;;;;;;;7.51;64.10;98462.77;3746509;79;43682;-27
2021/04/21 22:41:55;;;;;;;5.63;2.33;;;;;;;7.53;67.59;98454.09;3738339;78;43726;-27
2021/04/21 22:47:01;;;;;;;5.87;2.20;;;;;;;7.41;66.13;98469.45;3740917;78;44101;-27
2021/04/21 22:52:07;;;;;;;8.10;2.00;;;;;;;7.26;68.52;98465.00;3740435;78;43717;-27
2021/04/21 22:57:15;;;;;;;6.53;2.13;;;;;;;7.22;68.27;98475.16;3741351;78;69116;-27
2021/04/21 23:02:20;;;;;;;7.90;1.90;;;;;;;6.90;66.72;98473.55;3735421;78;43091;-27
2021/04/21 23:07:26;;;;;;;4.42;1.70;;;;;;;6.88;65.68;98479.52;3720106;79;43755;-27
2021/04/21 23:12:32;;;;;;;5.47;1.67;;;;;;;6.67;66.68;98481.42;3749989;78;44744;-27
2021/04/21 23:17:38;;;;;;;4.97;1.40;;;;;;;6.72;67.62;98494.77;3744168;79;44251;-26
2021/04/21 23:22:44;;;;;;;5.40;1.40;;;;;;;6.66;67.93;98498.47;3737421;78;43714;-27
2021/04/21 23:27:51;;;;;;;7.10;1.30;;;;;;;6.51;66.67;98502.84;3744459;79;43675;-27
2021/04/21 23:32:59;;;;;;;4.23;1.20;;;;;;;6.44;68.54;98504.36;3742537;79;44060;-27
2021/04/21 23:38:05;;;;;;;7.03;2.10;;;;;;;6.35;68.75;98511.34;3743974;79;43412;-27
2021/04/21 23:43:11;;;;;;;5.97;1.50;;;;;;;6.28;70.53;98516.88;3739658;78;44027;-28
2021/04/21 23:48:17;;;;;;;4.87;1.60;;;;;;;6.20;70.45;98511.31;3741250;79;44058;-27
2021/04/21 23:53:23;;;;;;;5.77;1.30;;;;;;;6.20;70.83;98518.87;3743067;78;43719;-27
2021/04/21 23:58:28;;;;;;;5.63;1.30;;;;;;;6.03;69.77;98526.99;3744100;78;44020;-27
